createdAt,value
2023-05-03T00:01:18.911Z,5.53
2023-05-03T00:05:21.795Z,7.13
2023-05-03T00:09:24.650Z,6.03
2023-05-03T00:13:28.905Z,7.30
2023-05-03T00:17:31.708Z,7.07
2023-05-03T00:21:34.536Z,6.55
2023-05-03T00:25:37.341Z,6.50
2023-05-03T00:29:41.503Z,10.05
2023-05-03T00:33:44.312Z,9.63
2023-05-03T00:37:47.168Z,6.25
2023-05-03T00:41:50.000Z,7.65
2023-05-03T00:46:04.589Z,6.30
2023-05-03T00:50:15.726Z,6.63
2023-05-03T00:54:18.797Z,8.15
2023-05-03T00:58:22.117Z,8.00
2023-05-03T01:02:26.772Z,8.18
2023-05-03T01:06:39.236Z,8.27
2023-05-03T01:10:49.598Z,7.95
2023-05-03T01:15:06.603Z,7.28
2023-05-03T01:19:27.749Z,7.30
2023-05-03T01:23:37.405Z,7.78
2023-05-03T01:27:42.480Z,8.90
2023-05-03T01:31:53.854Z,9.38
2023-05-03T01:36:03.316Z,9.20
2023-05-03T01:40:09.949Z,8.77
2023-05-03T01:44:14.895Z,9.75
2023-05-03T01:48:19.500Z,9.90
2023-05-03T01:52:22.512Z,9.35
2023-05-03T01:56:26.284Z,9.55
2023-05-03T02:00:31.451Z,10.13
2023-05-03T02:04:34.297Z,9.35
2023-05-03T02:08:37.151Z,8.43
2023-05-03T02:12:40.232Z,8.60
2023-05-03T02:16:44.559Z,8.20
2023-05-03T02:20:47.659Z,7.63
2023-05-03T02:24:50.469Z,8.05
2023-05-03T02:28:53.283Z,8.05
2023-05-03T02:32:57.501Z,8.27
2023-05-03T02:37:00.507Z,8.35
2023-05-03T02:41:03.604Z,8.35
2023-05-03T02:45:08.101Z,8.68
2023-05-03T02:49:12.525Z,7.63
2023-05-03T02:53:15.433Z,7.15
2023-05-03T02:57:18.237Z,6.32
2023-05-03T03:01:21.544Z,6.38
2023-05-03T03:05:26.004Z,5.93
2023-05-03T03:09:28.855Z,5.25
2023-05-03T03:13:32.221Z,5.95
2023-05-03T03:17:38.872Z,5.80
2023-05-03T03:21:45.669Z,5.50
2023-05-03T03:25:48.439Z,5.47
2023-05-03T03:29:52.155Z,5.78
2023-05-03T03:33:54.931Z,5.97
2023-05-03T03:38:01.127Z,6.55
2023-05-03T03:42:04.202Z,7.40
2023-05-03T03:46:07.572Z,7.05
2023-05-03T03:50:11.502Z,7.88
2023-05-03T03:54:16.400Z,7.90
2023-05-03T03:58:25.306Z,8.43
2023-05-03T04:02:29.225Z,8.07
2023-05-03T04:06:33.057Z,7.35
2023-05-03T04:10:41.633Z,7.47
2023-05-03T04:14:44.897Z,14.18
2023-05-03T04:18:47.849Z,13.40
2023-05-03T04:22:50.780Z,8.95
2023-05-03T04:26:58.825Z,7.35
2023-05-03T04:31:05.317Z,7.80
2023-05-03T04:35:12.419Z,9.47
2023-05-03T04:39:20.009Z,8.02
2023-05-03T04:43:25.601Z,8.85
2023-05-03T04:47:28.556Z,9.15
2023-05-03T04:51:31.905Z,9.88
2023-05-03T04:55:35.337Z,11.10
2023-05-03T04:59:41.787Z,11.80
2023-05-03T05:03:45.308Z,11.00
2023-05-03T05:07:54.316Z,11.18
2023-05-03T05:11:57.770Z,10.30
2023-05-03T05:16:07.144Z,11.18
2023-05-03T05:24:19.829Z,11.13
2023-05-03T05:28:22.686Z,10.52
2023-05-03T05:32:27.237Z,11.93
2023-05-03T05:36:31.704Z,11.43
2023-05-03T05:40:35.796Z,11.77
2023-05-03T05:44:38.682Z,11.23
2023-05-03T05:48:43.447Z,12.23
2023-05-03T05:52:47.198Z,12.77
2023-05-03T05:56:50.938Z,13.70
2023-05-03T06:00:59.126Z,12.85
2023-05-03T06:05:05.522Z,15.18
2023-05-03T06:09:20.828Z,14.38
2023-05-03T06:13:28.448Z,12.88
2023-05-03T06:17:32.622Z,13.95
2023-05-03T06:21:36.934Z,11.88
2023-05-03T06:25:40.005Z,12.65
2023-05-03T06:29:44.358Z,12.68
2023-05-03T06:33:47.719Z,14.43
2023-05-03T06:37:52.723Z,13.73
2023-05-03T06:41:56.626Z,12.70
2023-05-03T06:46:08.293Z,12.70
2023-05-03T06:50:11.929Z,13.15
2023-05-03T06:54:16.147Z,12.45
2023-05-03T06:58:18.976Z,13.18
2023-05-03T07:02:21.777Z,11.82
2023-05-03T07:06:24.680Z,13.68
2023-05-03T07:10:31.297Z,12.65
2023-05-03T07:14:34.513Z,14.00
2023-05-03T07:18:37.340Z,12.52
2023-05-03T07:22:40.104Z,14.45
2023-05-03T07:26:44.729Z,15.52
2023-05-03T07:30:48.715Z,16.27
2023-05-03T07:34:52.092Z,14.68
2023-05-03T07:38:56.789Z,15.57
2023-05-03T07:43:03.162Z,14.25
2023-05-03T07:47:05.963Z,15.90
2023-05-03T07:51:08.785Z,15.25
2023-05-03T07:55:11.631Z,16.00
2023-05-03T07:59:15.780Z,16.00
2023-05-03T08:03:18.796Z,15.00
2023-05-03T08:07:21.775Z,16.00
2023-05-03T08:11:24.527Z,15.82
2023-05-03T08:15:29.679Z,16.52
2023-05-03T08:19:32.547Z,17.40
2023-05-03T08:23:35.518Z,15.40
2023-05-03T08:27:38.993Z,16.45
2023-05-03T08:31:43.268Z,15.75
2023-05-03T08:35:48.083Z,17.58
2023-05-03T08:39:52.266Z,17.13
2023-05-03T08:43:56.030Z,17.98
2023-05-03T08:48:02.277Z,17.42
2023-05-03T08:52:07.648Z,16.25
2023-05-03T08:56:12.443Z,16.55
2023-05-03T09:00:15.987Z,15.63
2023-05-03T09:04:20.224Z,15.73
2023-05-03T09:08:23.804Z,16.00
2023-05-03T09:12:36.049Z,16.63
2023-05-03T09:16:40.646Z,18.13
2023-05-03T09:20:52.635Z,17.13
2023-05-03T09:24:58.399Z,17.10
2023-05-03T09:29:02.703Z,16.88
2023-05-03T09:33:05.898Z,17.08
2023-05-03T09:37:10.499Z,17.17
2023-05-03T09:41:13.544Z,17.83
2023-05-03T09:45:24.943Z,17.90
2023-05-03T09:49:27.911Z,18.40
2023-05-03T09:53:32.904Z,17.90
2023-05-03T09:57:35.856Z,19.30
2023-05-03T10:01:39.153Z,19.40
2023-05-03T10:05:47.720Z,19.77
2023-05-03T10:09:51.936Z,19.55
2023-05-03T10:13:55.006Z,19.00
2023-05-03T10:18:00.747Z,18.52
2023-05-03T10:22:07.705Z,16.30
2023-05-03T10:26:16.553Z,16.27
2023-05-03T10:30:38.149Z,16.33
2023-05-03T10:34:43.430Z,16.98
2023-05-03T10:38:47.340Z,15.50
2023-05-03T10:42:53.426Z,15.30
2023-05-03T10:51:19.545Z,15.57
2023-05-03T10:55:24.745Z,14.88
2023-05-03T10:59:47.589Z,16.17
2023-05-03T11:03:55.980Z,16.38
2023-05-03T11:08:09.833Z,15.88
2023-05-03T11:12:12.557Z,15.15
2023-05-03T11:16:16.828Z,15.15
2023-05-03T11:20:20.763Z,15.32
2023-05-03T11:24:23.810Z,15.07
2023-05-03T11:28:27.000Z,14.18
2023-05-03T11:32:31.444Z,13.07
2023-05-03T11:36:34.363Z,13.50
2023-05-03T11:40:39.536Z,13.02
2023-05-03T11:44:42.417Z,13.90
2023-05-03T11:48:46.650Z,13.90
2023-05-03T11:52:49.588Z,15.68
2023-05-03T11:56:56.474Z,12.32
2023-05-03T12:00:59.291Z,12.18
2023-05-03T12:05:03.820Z,10.65
2023-05-03T12:09:15.701Z,9.55
2023-05-03T12:13:30.036Z,8.68
2023-05-03T12:17:39.220Z,9.98
2023-05-03T12:21:59.349Z,9.95
2023-05-03T12:26:10.460Z,9.50
2023-05-03T12:30:17.510Z,8.85
2023-05-03T12:34:33.596Z,8.85
2023-05-03T12:38:42.292Z,8.10
2023-05-03T12:42:46.816Z,8.00
2023-05-03T12:51:00.605Z,6.90
2023-05-03T12:55:24.692Z,6.50
2023-05-03T12:59:41.353Z,7.32
2023-05-03T13:03:58.347Z,6.70
2023-05-03T13:08:09.985Z,7.13
2023-05-03T13:12:15.606Z,7.20
2023-05-03T13:16:19.542Z,6.65
2023-05-03T13:20:22.608Z,5.90
2023-05-03T13:24:26.080Z,6.15
2023-05-03T13:28:30.568Z,6.20
2023-05-03T13:32:34.223Z,5.90
2023-05-03T13:36:37.315Z,5.53
2023-05-03T13:40:40.067Z,5.50
2023-05-03T13:44:46.440Z,5.78
2023-05-03T13:48:49.246Z,5.40
2023-05-03T13:52:52.035Z,5.40
2023-05-03T13:56:54.843Z,5.20
2023-05-03T14:00:59.426Z,6.60
2023-05-03T14:05:02.742Z,6.00
2023-05-03T14:09:06.392Z,6.18
2023-05-03T14:13:09.347Z,6.68
2023-05-03T14:17:13.606Z,7.28
2023-05-03T14:21:18.453Z,6.68
2023-05-03T14:25:21.500Z,7.03
2023-05-03T14:29:24.340Z,6.80
2023-05-03T14:33:28.497Z,7.03
2023-05-03T14:37:31.869Z,6.43
2023-05-03T14:41:34.846Z,7.18
2023-05-03T14:45:37.655Z,7.07
2023-05-03T14:49:41.790Z,5.70
2023-05-03T14:53:44.576Z,5.32
2023-05-03T14:57:47.422Z,5.80
2023-05-03T15:01:53.424Z,5.22
2023-05-03T15:05:57.590Z,4.68
2023-05-03T15:10:03.652Z,3.85
2023-05-03T15:18:11.078Z,3.88
2023-05-03T15:22:16.061Z,3.72
2023-05-03T15:26:18.892Z,3.78
2023-05-03T15:30:21.731Z,3.85
2023-05-03T15:34:24.497Z,3.60
2023-05-03T15:38:28.652Z,4.25
2023-05-03T15:42:31.616Z,3.13
2023-05-03T15:46:35.290Z,3.78
2023-05-03T15:50:38.269Z,3.45
2023-05-03T15:54:42.432Z,4.68
2023-05-03T15:58:45.431Z,4.43
2023-05-03T16:02:48.395Z,4.57
2023-05-03T16:06:51.214Z,4.50
2023-05-03T16:10:55.438Z,5.28
2023-05-03T16:14:58.234Z,4.90
2023-05-03T16:19:01.049Z,4.22
2023-05-03T16:23:04.142Z,4.32
2023-05-03T16:27:08.366Z,4.22
2023-05-03T16:31:11.177Z,4.25
2023-05-03T16:35:13.934Z,4.45
2023-05-03T16:39:16.710Z,4.93
2023-05-03T16:43:20.868Z,4.55
2023-05-03T16:47:23.667Z,5.07
2023-05-03T16:51:27.849Z,5.93
2023-05-03T16:55:30.800Z,5.50
2023-05-03T16:59:34.939Z,6.38
2023-05-03T17:03:37.798Z,5.10
2023-05-03T17:07:42.067Z,5.50
2023-05-03T17:11:44.913Z,5.72
2023-05-03T17:15:49.124Z,5.00
2023-05-03T17:19:52.239Z,5.22
2023-05-03T17:23:55.026Z,5.40
2023-05-03T17:27:58.077Z,5.13
2023-05-03T17:32:02.299Z,5.57
2023-05-03T17:36:05.662Z,5.22
2023-05-03T17:40:09.473Z,5.15
2023-05-03T17:44:12.400Z,4.95
2023-05-03T17:48:16.702Z,4.50
2023-05-03T17:52:19.502Z,4.65
2023-05-03T17:56:22.579Z,4.82
2023-05-03T18:00:27.417Z,5.28
2023-05-03T18:04:31.569Z,4.80
2023-05-03T18:08:34.366Z,5.00
2023-05-03T18:12:37.220Z,5.78
2023-05-03T18:16:40.212Z,6.13
2023-05-03T18:20:44.342Z,6.03
2023-05-03T18:24:47.130Z,5.82
2023-05-03T18:28:51.068Z,6.00
2023-05-03T18:32:55.636Z,5.53
2023-05-03T18:36:59.966Z,5.95
2023-05-03T18:41:02.822Z,5.68
2023-05-03T18:45:06.151Z,5.78
2023-05-03T18:49:09.882Z,5.38
2023-05-03T18:53:14.611Z,5.40
2023-05-03T18:57:18.699Z,4.63
2023-05-03T19:01:21.557Z,4.82
2023-05-03T19:05:24.441Z,5.53
2023-05-03T19:09:28.780Z,5.03
2023-05-03T19:13:31.605Z,5.10
2023-05-03T19:17:34.423Z,5.65
2023-05-03T19:21:39.246Z,6.38
2023-05-03T19:25:43.424Z,5.50
2023-05-03T19:29:46.241Z,6.20
2023-05-03T19:33:49.013Z,6.50
2023-05-03T19:37:51.859Z,6.30
2023-05-03T19:41:56.540Z,6.30
2023-05-03T19:45:59.293Z,6.28
2023-05-03T19:50:02.423Z,7.53
2023-05-03T19:54:05.568Z,7.47
2023-05-03T19:58:09.828Z,7.53
2023-05-03T20:02:12.600Z,7.70
2023-05-03T20:06:15.432Z,7.40
2023-05-03T20:10:18.681Z,7.72
2023-05-03T20:14:22.856Z,8.80
2023-05-03T20:18:25.678Z,7.97
2023-05-03T20:22:28.463Z,8.85
2023-05-03T20:26:31.305Z,9.73
2023-05-03T20:30:35.552Z,8.93
2023-05-03T20:34:40.103Z,10.20
2023-05-03T20:38:42.888Z,9.05
2023-05-03T20:42:45.906Z,9.25
2023-05-03T20:46:50.119Z,10.15
2023-05-03T20:50:52.937Z,10.20
2023-05-03T20:54:55.771Z,9.27
2023-05-03T20:58:58.583Z,10.05
2023-05-03T21:03:03.482Z,9.10
2023-05-03T21:07:06.650Z,8.48
2023-05-03T21:11:09.474Z,9.73
2023-05-03T21:15:13.038Z,8.63
2023-05-03T21:19:17.253Z,7.93
2023-05-03T21:23:20.324Z,8.75
2023-05-03T21:27:23.138Z,9.15
2023-05-03T21:31:26.103Z,9.07
2023-05-03T21:35:30.343Z,10.30
2023-05-03T21:39:33.434Z,10.50
2023-05-03T21:43:36.829Z,10.32
2023-05-03T21:47:39.620Z,11.18
2023-05-03T21:51:44.961Z,9.30
2023-05-03T21:55:48.248Z,9.57
2023-05-03T21:59:51.154Z,9.52
2023-05-03T22:03:54.045Z,8.57
2023-05-03T22:07:58.317Z,8.13
2023-05-03T22:12:05.935Z,8.95
2023-05-03T22:16:15.061Z,8.93
2023-05-03T22:20:17.855Z,9.75
2023-05-03T22:24:22.384Z,9.65
2023-05-03T22:28:25.273Z,8.82
2023-05-03T22:32:28.085Z,7.70
2023-05-03T22:36:30.890Z,7.95
2023-05-03T22:40:35.185Z,7.68
2023-05-03T22:44:38.176Z,8.10
2023-05-03T22:48:40.946Z,8.70
2023-05-03T22:52:43.774Z,8.35
2023-05-03T22:56:47.914Z,8.40
2023-05-03T23:00:50.725Z,8.52
2023-05-03T23:04:53.645Z,9.27
2023-05-03T23:08:56.391Z,9.95
2023-05-03T23:13:00.616Z,11.80
2023-05-03T23:17:03.523Z,11.63
2023-05-03T23:21:06.404Z,10.77
2023-05-03T23:25:10.672Z,10.70
2023-05-03T23:29:14.872Z,12.02
2023-05-03T23:33:18.295Z,10.48
2023-05-03T23:37:21.427Z,9.77
2023-05-03T23:41:24.252Z,10.88
2023-05-03T23:45:28.414Z,10.00
2023-05-03T23:49:31.200Z,10.43
2023-05-03T23:53:33.987Z,10.07
2023-05-03T23:57:36.979Z,9.13
